Time;durP1;ratioP1;P1;durP2;ratioP2;P2;SDS_P1;SDS_P2;PMS_P1;PMS_P2;Temp;Humidity;BMP_temperature;BMP_pressure;BME280_temperature;BME280_humidity;BME280_pressure;Samples;Min_cycle;Max_cycle;Signal;HPM_P1;HPM_P2
2023/01/10 00:01:31;;;;;;;;;7.33;2.33;;;;;-146.37;100.00;59337.28;5047996;28;45363;-82
2023/01/10 00:03:56;;;;;;;;;3.67;2.33;;;;;-146.37;100.00;59337.28;5047704;28;45613;-83
2023/01/10 00:06:21;;;;;;;;;6.33;2.33;;;;;-146.37;100.00;59337.28;5049321;28;45353;-83
2023/01/10 00:08:47;;;;;;;;;6.00;4.33;;;;;-146.37;100.00;59337.28;5048009;28;45480;-83
2023/01/10 00:17:21;;;;;;;;;1.67;1.67;;;;;-146.37;100.00;59337.28;5051071;28;45815;-83
2023/01/10 00:19:46;;;;;;;;;2.67;2.00;;;;;-146.37;100.00;59337.28;5047212;28;45394;-82
2023/01/10 00:22:12;;;;;;;;;2.00;2.00;;;;;-146.37;100.00;59337.28;5049357;28;45379;-83
2023/01/10 00:24:37;;;;;;;;;5.33;2.33;;;;;-146.37;100.00;59337.28;5047493;28;45465;-83
2023/01/10 00:27:03;;;;;;;;;2.67;1.00;;;;;-146.37;100.00;59337.28;5049365;28;45885;-83
2023/01/10 00:29:30;;;;;;;;;2.00;2.00;;;;;-146.37;100.00;59337.28;5047364;28;45222;-83
2023/01/10 00:31:56;;;;;;;;;7.00;5.00;;;;;-146.37;100.00;59337.28;5051167;28;45446;-84
2023/01/10 00:34:22;;;;;;;;;5.67;2.00;;;;;-146.37;100.00;59337.28;5047686;28;45456;-83
2023/01/10 00:36:47;;;;;;;;;4.00;3.00;;;;;-146.37;100.00;59337.28;5049512;28;45485;-84
2023/01/10 00:39:14;;;;;;;;;5.00;2.00;;;;;-146.37;100.00;59337.28;5048907;28;45714;-83
2023/01/10 00:44:25;;;;;;;;;3.00;2.67;;;;;-146.37;100.00;59337.28;5069050;28;45295;-83
2023/01/10 00:46:51;;;;;;;;;5.00;1.67;;;;;-146.37;100.00;59337.28;5070199;28;46356;-83
2023/01/10 00:49:17;;;;;;;;;5.00;1.00;;;;;-146.37;100.00;59337.28;5069498;28;44828;-83
2023/01/10 00:51:43;;;;;;;;;3.00;3.00;;;;;-146.37;100.00;59337.28;5070951;28;45407;-83
2023/01/10 00:54:10;;;;;;;;;7.67;6.33;;;;;-146.37;100.00;59337.28;5053459;28;45650;-83
2023/01/10 00:56:35;;;;;;;;;2.67;2.67;;;;;-146.37;100.00;59337.28;5052943;28;46939;-83
2023/01/10 00:59:01;;;;;;;;;2.67;1.67;;;;;-146.37;100.00;59337.28;5054246;28;44930;-83
2023/01/10 01:04:48;;;;;;;;;6.00;3.00;;;;;-146.37;100.00;59337.28;5069260;28;45153;-84
2023/01/10 01:07:13;;;;;;;;;3.00;3.00;;;;;-146.37;100.00;59337.28;5050709;28;46870;-83
2023/01/10 01:10:25;;;;;;;;;4.33;2.00;;;;;-146.37;100.00;59337.28;5071968;28;45519;-84
2023/01/10 01:12:24;;;;;;;;;6.67;5.00;;;;;-146.37;100.00;59337.28;5070535;28;45406;-83
2023/01/10 01:14:51;;;;;;;;;3.00;2.00;;;;;-146.37;100.00;59337.28;5069808;28;45421;-84
2023/01/10 01:17:17;;;;;;;;;2.00;2.00;;;;;-146.37;100.00;59337.28;5069659;28;46925;-83
2023/01/10 01:19:42;;;;;;;;;5.00;2.67;;;;;-146.37;100.00;59337.28;5052224;28;45418;-83
2023/01/10 01:22:08;;;;;;;;;5.33;5.00;;;;;-146.37;100.00;59337.28;5069332;28;44818;-83
2023/01/10 01:24:33;;;;;;;;;2.00;2.00;;;;;-146.37;100.00;59337.28;5069487;28;45424;-82
2023/01/10 01:26:59;;;;;;;;;2.00;2.00;;;;;-146.37;100.00;59337.28;5067884;28;46867;-83
2023/01/10 01:29:24;;;;;;;;;3.67;3.67;;;;;-146.37;100.00;59337.28;5050648;28;45284;-83
2023/01/10 01:31:49;;;;;;;;;1.33;1.33;;;;;-146.37;100.00;59337.28;5052934;28;45775;-83
2023/01/10 01:34:15;;;;;;;;;6.00;3.00;;;;;-146.37;100.00;59337.28;5052930;28;45599;-83
2023/01/10 01:36:42;;;;;;;;;6.33;5.00;;;;;-146.37;100.00;59337.28;5051132;28;47604;-83
2023/01/10 01:39:07;;;;;;;;;7.67;3.67;;;;;-146.37;100.00;59337.28;5050870;28;45434;-83
2023/01/10 01:44:19;;;;;;;;;6.00;2.33;;;;;-146.37;100.00;59337.28;5068673;28;45421;-83
2023/01/10 01:46:52;;;;;;;;;7.00;5.00;;;;;-146.37;100.00;59337.28;5049692;28;47027;-83
2023/01/10 01:49:22;;;;;;;;;1.33;1.33;;;;;-146.37;100.00;59337.28;5050333;28;45429;-82
2023/01/10 01:51:53;;;;;;;;;2.00;1.67;;;;;-146.37;100.00;59337.28;5049882;28;44813;-83
2023/01/10 01:54:19;;;;;;;;;5.67;4.33;;;;;-146.37;100.00;59337.28;5052157;28;45648;-83
2023/01/10 01:56:52;;;;;;;;;3.33;3.33;;;;;-146.37;100.00;59337.28;5052953;28;47730;-82
2023/01/10 01:59:40;;;;;;;;;4.00;3.33;;;;;-146.37;100.00;59337.28;5052260;28;44876;-82
2023/01/10 02:02:29;;;;;;;;;3.00;3.00;;;;;-146.37;100.00;59337.28;5070910;28;45433;-84
2023/01/10 02:05:02;;;;;;;;;1.00;1.00;;;;;-146.37;100.00;59337.28;5070170;28;44778;-82
2023/01/10 02:07:33;;;;;;;;;2.67;2.33;;;;;-146.37;100.00;59337.28;5050011;28;47378;-82
2023/01/10 02:10:05;;;;;;;;;7.00;3.00;;;;;-146.37;100.00;59337.28;5069463;28;45445;-82
2023/01/10 02:12:31;;;;;;;;;10.00;6.00;;;;;-146.37;100.00;59337.28;5051956;28;45243;-82
2023/01/10 02:14:58;;;;;;;;;2.00;2.00;;;;;-146.37;100.00;59337.28;5071388;28;44808;-83
2023/01/10 02:17:23;;;;;;;;;6.33;2.67;;;;;-146.37;100.00;59337.28;5051248;28;47380;-82
2023/01/10 02:19:52;;;;;;;;;1.00;1.00;;;;;-146.37;100.00;59337.28;5050891;28;45686;-82
2023/01/10 02:22:38;;;;;;;;;3.00;3.00;;;;;-146.37;100.00;59337.28;5049546;28;45475;-82
2023/01/10 02:25:45;;;;;;;;;2.00;2.00;;;;;-146.37;100.00;59337.28;5066748;28;45553;-82
2023/01/10 02:28:29;;;;;;;;;3.00;1.67;;;;;-146.37;100.00;59337.28;5048829;28;46939;-84
2023/01/10 02:31:03;;;;;;;;;2.00;2.00;;;;;-146.37;100.00;59337.28;5068040;28;45485;-84
2023/01/10 02:33:38;;;;;;;;;3.00;2.67;;;;;-146.37;100.00;59337.28;5049121;28;45426;-84
2023/01/10 02:36:18;;;;;;;;;5.33;5.00;;;;;-146.37;100.00;59337.28;5068370;28;45493;-84
2023/01/10 02:39:02;;;;;;;;;2.00;2.00;;;;;-146.37;100.00;59337.28;5048762;28;47462;-84
2023/01/10 02:41:57;;;;;;;;;3.00;2.33;;;;;-146.37;100.00;59337.28;5048182;28;45488;-84
2023/01/10 02:44:55;;;;;;;;;5.33;1.33;;;;;-146.37;100.00;59337.28;5057191;28;45359;-83
2023/01/10 02:47:21;;;;;;;;;5.67;2.67;;;;;-146.37;100.00;59337.28;5049108;28;45339;-83
2023/01/10 02:49:49;;;;;;;;;5.00;3.67;;;;;-146.37;100.00;59337.28;5067378;28;46043;-83
2023/01/10 02:52:35;;;;;;;;;4.33;2.00;;;;;-146.37;100.00;59337.28;5067882;28;45299;-82
2023/01/10 02:55:02;;;;;;;;;3.00;3.00;;;;;-146.37;100.00;59337.28;5049343;28;45430;-82
2023/01/10 02:57:50;;;;;;;;;5.33;1.33;;;;;-146.37;100.00;59337.28;5049457;28;45478;-82
2023/01/10 03:00:34;;;;;;;;;3.67;1.67;;;;;-146.37;100.00;59337.28;5050953;28;45113;-82
2023/01/10 03:03:06;;;;;;;;;3.00;3.00;;;;;-146.37;100.00;59337.28;5030840;28;45375;-84
2023/01/10 03:06:28;;;;;;;;;2.33;2.33;;;;;-146.37;100.00;59337.28;5047584;28;45928;-83
2023/01/10 03:09:06;;;;;;;;;2.00;2.00;;;;;-146.37;100.00;59337.28;5030945;28;45471;-83
2023/01/10 03:11:39;;;;;;;;;3.00;3.00;;;;;-146.37;100.00;59337.28;5047726;28;46885;-83
2023/01/10 03:14:27;;;;;;;;;7.00;3.67;;;;;-146.37;100.00;59337.28;5047640;28;45354;-83
2023/01/10 03:17:03;;;;;;;;;4.33;2.33;;;;;-146.37;100.00;59337.28;5030715;28;45472;-83
2023/01/10 03:19:34;;;;;;;;;1.00;1.00;;;;;-146.37;100.00;59337.28;5050707;28;44819;-83
2023/01/10 03:22:03;;;;;;;;;3.00;3.00;;;;;-146.37;100.00;59337.28;5048442;28;46711;-83
2023/01/10 03:24:40;;;;;;;;;3.00;0.00;;;;;-146.37;100.00;59337.28;5051298;28;45345;-83
2023/01/10 03:27:18;;;;;;;;;1.33;1.00;;;;;-146.37;100.00;59337.28;5050742;28;45362;-83
2023/01/10 03:30:05;;;;;;;;;2.33;2.33;;;;;-146.37;100.00;59337.28;5033658;28;45387;-83
2023/01/10 03:32:31;;;;;;;;;2.33;2.33;;;;;-146.37;100.00;59337.28;5031742;28;46831;-83
2023/01/10 03:34:59;;;;;;;;;2.00;2.00;;;;;-146.37;100.00;59337.28;5050038;28;45423;-83
2023/01/10 03:37:27;;;;;;;;;5.00;2.00;;;;;-146.37;100.00;59337.28;5050393;28;45462;-82
2023/01/10 03:40:08;;;;;;;;;1.00;1.00;;;;;-146.37;100.00;59337.28;5029255;28;44945;-83
2023/01/10 03:45:54;;;;;;;;;1.00;1.00;;;;;-146.37;100.00;59337.28;5028180;28;45363;-82
2023/01/10 03:48:25;;;;;;;;;4.00;2.00;;;;;-146.37;100.00;59337.28;5012545;28;44814;-84
2023/01/10 03:50:52;;;;;;;;;3.00;2.00;;;;;-146.37;100.00;59337.28;5029803;28;45520;-84
2023/01/10 03:53:18;;;;;;;;;2.00;1.00;;;;;-146.37;100.00;59337.28;5027490;28;46854;-84
2023/01/10 03:55:44;;;;;;;;;2.67;2.00;;;;;-146.37;100.00;59337.28;5011649;28;45498;-84
2023/01/10 03:58:09;;;;;;;;;4.33;2.33;;;;;-146.37;100.00;59337.28;5026717;28;45376;-83
2023/01/10 04:00:35;;;;;;;;;2.00;2.00;;;;;-146.37;100.00;59337.28;5027548;28;45375;-83
2023/01/10 04:03:00;;;;;;;;;5.33;2.00;;;;;-146.37;100.00;59337.28;5025148;28;45336;-83
2023/01/10 04:05:26;;;;;;;;;3.00;1.33;;;;;-146.37;100.00;59337.28;5024358;28;45319;-83
2023/01/10 04:07:52;;;;;;;;;2.33;2.33;;;;;-146.37;100.00;59337.28;5025993;28;45327;-83
2023/01/10 04:10:17;;;;;;;;;10.00;5.33;;;;;-146.37;100.00;59337.28;5025600;28;45488;-82
2023/01/10 04:12:43;;;;;;;;;3.00;2.00;;;;;-146.37;100.00;59337.28;5023746;28;45430;-83
2023/01/10 04:15:09;;;;;;;;;1.33;1.33;;;;;-146.37;100.00;59337.28;5024410;28;45404;-83
2023/01/10 04:17:34;;;;;;;;;1.00;1.00;;;;;-146.37;100.00;59337.28;5027835;28;45461;-83
2023/01/10 04:20:00;;;;;;;;;2.00;0.33;;;;;-146.37;100.00;59337.28;5026175;28;45477;-83
2023/01/10 04:22:26;;;;;;;;;1.00;1.00;;;;;-146.37;100.00;59337.28;5027061;28;45491;-83
2023/01/10 04:24:52;;;;;;;;;5.00;3.00;;;;;-146.37;100.00;59337.28;5026379;28;45450;-83
2023/01/10 04:27:18;;;;;;;;;4.00;1.33;;;;;-146.37;100.00;59337.28;5025550;28;45488;-83
2023/01/10 04:29:43;;;;;;;;;5.33;4.67;;;;;-146.37;100.00;59337.28;5047004;28;45354;-83
2023/01/10 04:32:09;;;;;;;;;2.67;2.00;;;;;-146.37;100.00;59337.28;5032492;28;47088;-83
2023/01/10 04:34:34;;;;;;;;;1.00;1.00;;;;;-146.37;100.00;59337.28;5033887;28;45402;-83
2023/01/10 04:37:00;;;;;;;;;2.67;2.00;;;;;-146.37;100.00;59337.28;5053172;28;45508;-83
2023/01/10 04:39:25;;;;;;;;;1.67;1.33;;;;;-146.37;100.00;59337.28;5049096;28;45485;-83
2023/01/10 04:41:51;;;;;;;;;3.00;2.00;;;;;-146.37;100.00;59337.28;5052990;28;46665;-83
2023/01/10 04:44:16;;;;;;;;;5.67;3.00;;;;;-146.37;100.00;59337.28;5051932;28;45529;-83
2023/01/10 04:46:41;;;;;;;;;4.33;2.00;;;;;-146.37;100.00;59337.28;5054422;28;45319;-83
2023/01/10 04:49:08;;;;;;;;;2.33;2.33;;;;;-146.37;100.00;59337.28;5054118;28;45399;-84
2023/01/10 04:51:34;;;;;;;;;2.67;2.00;;;;;-146.37;100.00;59337.28;5070494;28;45366;-83
2023/01/10 04:53:59;;;;;;;;;3.00;3.00;;;;;-146.37;100.00;59337.28;5070595;28;45470;-83
2023/01/10 04:56:25;;;;;;;;;5.00;4.00;;;;;-146.37;100.00;59337.28;5050342;28;45484;-83
2023/01/10 04:58:50;;;;;;;;;3.00;3.00;;;;;-146.37;100.00;59337.28;5035608;28;45469;-83
2023/01/10 05:01:26;;;;;;;;;2.67;1.00;;;;;-146.37;100.00;59337.28;5050192;28;45482;-83
2023/01/10 05:03:54;;;;;;;;;5.00;1.67;;;;;-146.37;100.00;59337.28;5031379;28;45424;-83
2023/01/10 05:06:22;;;;;;;;;2.00;2.00;;;;;-146.37;100.00;59337.28;5030606;28;45755;-83
2023/01/10 05:08:47;;;;;;;;;3.00;3.00;;;;;-146.37;100.00;59337.28;5049880;28;45463;-83
2023/01/10 05:11:13;;;;;;;;;5.33;3.33;;;;;-146.37;100.00;59337.28;5032085;28;47325;-84
2023/01/10 05:13:39;;;;;;;;;1.00;1.00;;;;;-146.37;100.00;59337.28;5050678;28;45022;-84
2023/01/10 05:16:05;;;;;;;;;4.00;3.00;;;;;-146.37;100.00;59337.28;5035344;28;44925;-84
2023/01/10 05:18:32;;;;;;;;;3.67;3.67;;;;;-146.37;100.00;59337.28;5035084;28;45493;-83
2023/01/10 05:21:07;;;;;;;;;6.33;3.67;;;;;-146.37;100.00;59337.28;5034043;28;47103;-83
2023/01/10 05:23:32;;;;;;;;;3.00;2.00;;;;;-146.37;100.00;59337.28;5050309;28;45446;-83
2023/01/10 05:26:06;;;;;;;;;2.67;2.67;;;;;-146.37;100.00;59337.28;5033012;28;45462;-83
2023/01/10 05:28:32;;;;;;;;;7.33;4.00;;;;;-146.37;100.00;59337.28;5033310;28;45496;-83
2023/01/10 05:30:57;;;;;;;;;2.33;2.00;;;;;-146.37;100.00;59337.28;5032124;28;46298;-83
2023/01/10 05:33:23;;;;;;;;;2.33;2.00;;;;;-146.37;100.00;59337.28;5032372;28;45559;-83
2023/01/10 05:35:48;;;;;;;;;1.33;1.33;;;;;-146.37;100.00;59337.28;5033170;28;45426;-83
2023/01/10 05:38:14;;;;;;;;;8.00;2.33;;;;;-146.37;100.00;59337.28;5030136;28;45402;-83
2023/01/10 05:40:39;;;;;;;;;1.00;1.00;;;;;-146.37;100.00;59337.28;5028925;28;45338;-83
2023/01/10 05:43:04;;;;;;;;;5.67;3.67;;;;;-146.37;100.00;59337.28;5027625;28;45371;-83
2023/01/10 05:45:30;;;;;;;;;4.67;2.67;;;;;-146.37;100.00;59337.28;5028977;28;45312;-83
2023/01/10 05:48:27;;;;;;;;;3.00;3.00;;;;;-146.37;100.00;59337.28;5030518;28;45283;-82
2023/01/10 05:50:52;;;;;;;;;2.67;2.67;;;;;-146.37;100.00;59337.28;5027582;28;46621;-84
2023/01/10 05:53:19;;;;;;;;;3.00;2.00;;;;;-146.37;100.00;59337.28;5028523;28;45511;-84
2023/01/10 05:55:58;;;;;;;;;4.00;2.67;;;;;-146.37;100.00;59337.28;5028236;28;45481;-84
2023/01/10 05:58:24;;;;;;;;;3.67;2.67;;;;;-146.37;100.00;59337.28;5026854;28;45565;-83
2023/01/10 06:00:50;;;;;;;;;3.00;1.67;;;;;-146.37;100.00;59337.28;5026558;28;47309;-83
2023/01/10 06:03:16;;;;;;;;;4.67;2.00;;;;;-146.37;100.00;59337.28;5029087;28;45358;-83
2023/01/10 06:05:41;;;;;;;;;3.67;3.67;;;;;-146.37;100.00;59337.28;5029715;28;45342;-83
2023/01/10 06:08:07;;;;;;;;;7.00;5.00;;;;;-146.37;100.00;59337.28;5026532;28;45549;-83
2023/01/10 06:10:32;;;;;;;;;5.67;2.00;;;;;-146.37;100.00;59337.28;5026812;28;46600;-83
2023/01/10 06:12:58;;;;;;;;;2.00;2.00;;;;;-146.37;100.00;59337.28;5028891;28;45290;-84
2023/01/10 06:15:24;;;;;;;;;6.00;3.00;;;;;-146.37;100.00;59337.28;5027921;28;45346;-84
2023/01/10 06:17:49;;;;;;;;;5.33;3.00;;;;;-146.37;100.00;59337.28;5027461;28;45680;-83
2023/01/10 06:20:16;;;;;;;;;3.00;3.00;;;;;-146.37;100.00;59337.28;5026314;28;47402;-84
2023/01/10 06:22:42;;;;;;;;;5.00;4.67;;;;;-146.37;100.00;59337.28;5042216;28;45736;-83
2023/01/10 06:25:12;;;;;;;;;3.00;3.00;;;;;-146.37;100.00;59337.28;5047052;28;45463;-82
2023/01/10 06:27:43;;;;;;;;;4.33;3.67;;;;;-146.37;100.00;59337.28;5049240;28;45303;-83
2023/01/10 06:30:11;;;;;;;;;2.67;2.67;;;;;-146.37;100.00;59337.28;5045670;28;47748;-84
2023/01/10 06:32:39;;;;;;;;;4.33;4.33;;;;;-146.37;100.00;59337.28;5047963;28;45785;-84
2023/01/10 06:35:06;;;;;;;;;3.00;3.00;;;;;-146.37;100.00;59337.28;5049642;28;45522;-83
2023/01/10 06:37:31;;;;;;;;;6.67;3.33;;;;;-146.37;100.00;59337.28;5047829;28;45469;-84
2023/01/10 06:39:57;;;;;;;;;4.33;3.67;;;;;-146.37;100.00;59337.28;5066915;28;45907;-83
2023/01/10 06:42:23;;;;;;;;;6.00;5.00;;;;;-146.37;100.00;59337.28;5069917;28;45567;-84
2023/01/10 06:44:48;;;;;;;;;1.33;1.33;;;;;-146.37;100.00;59337.28;5071631;28;44891;-83
2023/01/10 06:47:20;;;;;;;;;6.67;5.00;;;;;-146.37;100.00;59337.28;5053533;28;44825;-83
2023/01/10 06:49:45;;;;;;;;;3.67;2.33;;;;;-146.37;100.00;59337.28;5052520;28;47612;-84
2023/01/10 06:52:11;;;;;;;;;3.67;2.00;;;;;-146.37;100.00;59337.28;5051715;28;45428;-84
2023/01/10 06:54:36;;;;;;;;;9.33;5.33;;;;;-146.37;100.00;59337.28;5052052;28;45177;-84
2023/01/10 06:57:02;;;;;;;;;3.67;2.33;;;;;-146.37;100.00;59337.28;5051395;28;45523;-84
2023/01/10 06:59:27;;;;;;;;;9.33;7.33;;;;;-146.37;100.00;59337.28;5052039;28;47211;-84
2023/01/10 07:01:53;;;;;;;;;0.00;0.00;;;;;-146.37;100.00;59337.28;5066440;28;45419;-83
2023/01/10 07:04:18;;;;;;;;;6.33;5.67;;;;;-146.37;100.00;59337.28;5064453;28;45385;-83
2023/01/10 07:10:08;;;;;;;;;2.00;2.00;;;;;-146.37;100.00;59337.28;5068111;28;45403;-83
2023/01/10 07:12:33;;;;;;;;;3.67;2.00;;;;;-146.37;100.00;59337.28;5049691;28;45920;-83
2023/01/10 07:14:59;;;;;;;;;3.67;3.67;;;;;-146.37;100.00;59337.28;5045499;28;45484;-83
2023/01/10 07:17:24;;;;;;;;;2.67;2.67;;;;;-146.37;100.00;59337.28;5050974;28;44892;-85
2023/01/10 07:19:50;;;;;;;;;2.00;2.00;;;;;-146.37;100.00;59337.28;5060914;28;47537;-83
2023/01/10 07:22:15;;;;;;;;;2.33;2.00;;;;;-146.37;100.00;59337.28;5050537;28;44837;-83
2023/01/10 07:24:41;;;;;;;;;5.00;5.00;;;;;-146.37;100.00;59337.28;5055458;28;45418;-82
2023/01/10 07:27:07;;;;;;;;;5.00;3.00;;;;;-146.37;100.00;59337.28;5049821;28;45901;-83
2023/01/10 07:29:33;;;;;;;;;1.67;1.67;;;;;-146.37;100.00;59337.28;5032654;28;45391;-82
2023/01/10 07:31:58;;;;;;;;;5.00;5.00;;;;;-146.37;100.00;59337.28;5015742;28;45344;-83
2023/01/10 07:34:24;;;;;;;;;5.67;4.00;;;;;-146.37;100.00;59337.28;5031866;28;45471;-82
2023/01/10 07:36:49;;;;;;;;;3.67;2.00;;;;;-146.37;100.00;59337.28;5033439;28;45036;-82
2023/01/10 07:39:18;;;;;;;;;1.67;1.67;;;;;-146.37;100.00;59337.28;5033253;28;46610;-83
2023/01/10 07:41:49;;;;;;;;;5.67;2.33;;;;;-146.37;100.00;59337.28;5028662;28;45442;-83
2023/01/10 07:44:15;;;;;;;;;30.00;27.00;;;;;-146.37;100.00;59337.28;5033377;28;45323;-83
2023/01/10 07:46:41;;;;;;;;;6.00;6.00;;;;;-146.37;100.00;59337.28;5033809;28;45473;-83
2023/01/10 07:49:07;;;;;;;;;10.00;6.00;;;;;-146.37;100.00;59337.28;5069152;28;46156;-83
2023/01/10 07:51:34;;;;;;;;;2.00;2.00;;;;;-146.37;100.00;59337.28;5070248;28;45480;-83
2023/01/10 07:54:00;;;;;;;;;8.00;6.33;;;;;-146.37;100.00;59337.28;5070378;28;45341;-83
2023/01/10 07:56:26;;;;;;;;;2.67;2.67;;;;;-146.37;100.00;59337.28;5070128;28;45403;-82
2023/01/10 07:58:52;;;;;;;;;6.00;4.00;;;;;-146.37;100.00;59337.28;5052130;28;46737;-84
2023/01/10 08:01:17;;;;;;;;;5.00;4.67;;;;;-146.37;100.00;59337.28;5052808;28;44855;-83
2023/01/10 08:03:43;;;;;;;;;4.00;4.00;;;;;-146.37;100.00;59337.28;5070239;28;45287;-83
2023/01/10 08:06:09;;;;;;;;;4.67;4.67;;;;;-146.37;100.00;59337.28;5053886;28;45418;-84
2023/01/10 08:08:36;;;;;;;;;3.00;3.00;;;;;-146.37;100.00;59337.28;5073264;28;45346;-84
2023/01/10 08:11:07;;;;;;;;;7.33;5.00;;;;;-146.37;100.00;59337.28;5039025;28;45461;-83
2023/01/10 08:13:33;;;;;;;;;3.00;3.00;;;;;-146.37;100.00;59337.28;5056283;28;45367;-82
2023/01/10 08:16:02;;;;;;;;;7.67;7.00;;;;;-146.37;100.00;59337.28;5055554;28;45322;-85
2023/01/10 08:18:28;;;;;;;;;5.67;3.67;;;;;-146.37;100.00;59337.28;5055372;28;47401;-84
2023/01/10 08:20:59;;;;;;;;;3.00;3.00;;;;;-146.37;100.00;59337.28;5064111;28;45354;-84
2023/01/10 08:23:29;;;;;;;;;3.00;2.67;;;;;-146.37;100.00;59337.28;5057031;28;45465;-83
2023/01/10 08:25:57;;;;;;;;;3.00;1.67;;;;;-146.37;100.00;59337.28;5055450;28;44785;-83
2023/01/10 08:28:22;;;;;;;;;5.67;3.00;;;;;-146.37;100.00;59337.28;5053793;28;48189;-82
2023/01/10 08:30:54;;;;;;;;;7.67;3.00;;;;;-146.37;100.00;59337.28;5070665;28;45294;-84
2023/01/10 08:33:22;;;;;;;;;11.00;8.33;;;;;-146.37;100.00;59337.28;5049869;28;45437;-83
2023/01/10 08:35:50;;;;;;;;;5.00;2.00;;;;;-146.37;100.00;59337.28;5053044;28;45481;-85
2023/01/10 08:38:16;;;;;;;;;5.00;3.00;;;;;-146.37;100.00;59337.28;5052322;28;45511;-83
2023/01/10 08:40:42;;;;;;;;;7.00;4.67;;;;;-146.37;100.00;59337.28;5047263;28;45398;-85
2023/01/10 08:43:11;;;;;;;;;8.00;4.33;;;;;-146.37;100.00;59337.28;5056669;28;44862;-85
2023/01/10 08:45:37;;;;;;;;;3.00;3.00;;;;;-146.37;100.00;59337.28;5049943;28;45490;-86
2023/01/10 08:48:04;;;;;;;;;2.67;2.67;;;;;-146.37;100.00;59337.28;5042444;28;47170;-85
2023/01/10 08:53:52;;;;;;;;;0.00;0.00;;;;;-146.37;100.00;59337.28;5074174;28;45485;-85
2023/01/10 08:56:17;;;;;;;;;6.33;5.00;;;;;-146.37;100.00;59337.28;5072120;28;45636;-83
2023/01/10 08:58:43;;;;;;;;;7.00;5.00;;;;;-146.37;100.00;59337.28;5064734;28;47384;-84
2023/01/10 09:01:10;;;;;;;;;4.67;2.33;;;;;-146.37;100.00;59337.28;5058309;28;45465;-83
2023/01/10 09:03:40;;;;;;;;;4.00;4.00;;;;;-146.37;100.00;59337.28;5061815;28;44777;-86
2023/01/10 09:06:07;;;;;;;;;4.33;3.00;;;;;-146.37;100.00;59337.28;5058646;28;44875;-84
2023/01/10 09:08:34;;;;;;;;;5.67;4.67;;;;;-146.37;100.00;59337.28;5067052;28;45287;-84
2023/01/10 09:11:01;;;;;;;;;8.33;4.33;;;;;-146.37;100.00;59337.28;5058485;28;45587;-83
2023/01/10 09:13:28;;;;;;;;;3.00;3.00;;;;;-146.37;100.00;59337.28;5034947;28;45504;-83
2023/01/10 09:15:54;;;;;;;;;6.00;6.00;;;;;-146.37;100.00;59337.28;5033435;28;45503;-85
2023/01/10 09:18:19;;;;;;;;;3.00;3.00;;;;;-146.37;100.00;59337.28;5057957;28;45460;-82
2023/01/10 09:20:57;;;;;;;;;6.00;4.00;;;;;-146.37;100.00;59337.28;5039097;28;45356;-85
2023/01/10 09:26:47;;;;;;;;;9.67;6.00;;;;;-146.37;100.00;59337.28;5075421;28;45385;-85
2023/01/10 09:29:13;;;;;;;;;8.33;3.00;;;;;-146.37;100.00;59337.28;5057410;28;46922;-85
2023/01/10 09:31:39;;;;;;;;;4.00;4.00;;;;;-146.37;100.00;59337.28;5055942;28;45423;-84
2023/01/10 09:34:15;;;;;;;;;7.33;4.00;;;;;-146.37;100.00;59337.28;5063732;28;45319;-84
2023/01/10 09:36:41;;;;;;;;;6.00;6.00;;;;;-146.37;100.00;59337.28;5042082;28;45338;-84
2023/01/10 09:39:07;;;;;;;;;6.00;5.33;;;;;-146.37;100.00;59337.28;5064085;28;45474;-84
2023/01/10 09:42:16;;;;;;;;;7.33;4.00;;;;;-146.37;100.00;59337.28;5072054;28;44951;-85
2023/01/10 09:44:41;;;;;;;;;6.67;5.33;;;;;-146.37;100.00;59337.28;5066654;28;45328;-85
2023/01/10 09:47:46;;;;;;;;;7.67;6.67;;;;;-146.37;100.00;59337.28;5035560;28;45359;-85
2023/01/10 09:50:30;;;;;;;;;6.00;3.67;;;;;-146.37;100.00;59337.28;5054149;28;45304;-83
2023/01/10 09:53:10;;;;;;;;;5.67;5.00;;;;;-146.37;100.00;59337.28;5075559;28;45365;-84
2023/01/10 09:55:37;;;;;;;;;7.00;4.00;;;;;-146.37;100.00;59337.28;5069788;28;45448;-83
2023/01/10 09:58:11;;;;;;;;;7.67;5.00;;;;;-146.37;100.00;59337.28;5060784;28;45295;-83
2023/01/10 10:00:48;;;;;;;;;7.67;6.33;;;;;-146.37;100.00;59337.28;5052311;28;47555;-82
2023/01/10 10:03:37;;;;;;;;;6.00;6.00;;;;;-146.37;100.00;59337.28;5072030;28;44933;-84
2023/01/10 10:06:03;;;;;;;;;9.33;7.33;;;;;-146.37;100.00;59337.28;5052706;28;45328;-82
2023/01/10 10:19:12;;;;;;;;;6.00;5.00;;;;;-146.37;100.00;59337.28;5059749;28;45402;-84
2023/01/10 10:22:11;;;;;;;;;8.33;6.33;;;;;-146.37;100.00;59337.28;5054018;28;45308;-82
2023/01/10 10:25:13;;;;;;;;;7.33;7.33;;;;;-146.37;100.00;59337.28;5050430;28;47825;-84
2023/01/10 10:28:03;;;;;;;;;21.67;17.00;;;;;-146.37;100.00;59337.28;5042205;28;45332;-84
2023/01/10 10:30:28;;;;;;;;;9.00;7.33;;;;;-146.37;100.00;59337.28;5054734;28;45586;-83
2023/01/10 10:33:14;;;;;;;;;10.67;8.00;;;;;-146.37;100.00;59337.28;5053152;28;45513;-84
2023/01/10 10:36:33;;;;;;;;;8.33;5.67;;;;;-146.37;100.00;59337.28;5070069;28;45444;-83
2023/01/10 10:39:01;;;;;;;;;7.67;6.33;;;;;-146.37;100.00;59337.28;5008081;28;45523;-83
2023/01/10 10:41:34;;;;;;;;;3.00;2.67;;;;;-146.37;100.00;59337.28;5042258;28;45790;-82
2023/01/10 10:44:08;;;;;;;;;7.00;7.00;;;;;-146.37;100.00;59337.28;5026773;28;45573;-80
2023/01/10 10:46:33;;;;;;;;;5.33;5.00;;;;;-146.37;100.00;59337.28;5039339;28;45281;-82
2023/01/10 10:49:17;;;;;;;;;6.00;6.00;;;;;-146.37;100.00;59337.28;5031645;28;45355;-82
2023/01/10 10:51:52;;;;;;;;;3.67;3.67;;;;;-146.37;100.00;59337.28;5049724;28;45392;-82
2023/01/10 10:54:17;;;;;;;;;4.00;3.00;;;;;-146.37;100.00;59337.28;5048631;28;44960;-83
2023/01/10 10:56:44;;;;;;;;;4.00;4.00;;;;;-146.37;100.00;59337.28;5047062;28;46069;-81
2023/01/10 10:59:17;;;;;;;;;7.67;7.33;;;;;-146.37;100.00;59337.28;5045786;28;45517;-83
2023/01/10 11:01:47;;;;;;;;;7.00;6.00;;;;;-146.37;100.00;59337.28;5014841;28;44804;-83
2023/01/10 11:04:17;;;;;;;;;10.33;6.00;;;;;-146.37;100.00;59337.28;5035864;28;45362;-81
2023/01/10 11:06:48;;;;;;;;;5.33;5.33;;;;;-146.37;100.00;59337.28;5014700;28;47917;-82
2023/01/10 11:12:20;;;;;;;;;8.33;4.67;;;;;-146.37;100.00;59337.28;4999490;28;44932;-82
2023/01/10 11:14:50;;;;;;;;;4.00;4.00;;;;;-146.37;100.00;59337.28;4994356;28;45598;-83
2023/01/10 11:17:30;;;;;;;;;3.67;3.67;;;;;-146.37;100.00;59337.28;5009741;28;45464;-83
2023/01/10 11:20:06;;;;;;;;;7.33;6.00;;;;;-146.37;100.00;59337.28;5007634;28;44767;-83
2023/01/10 11:22:45;;;;;;;;;3.00;3.00;;;;;-146.37;100.00;59337.28;4999045;28;44843;-83
2023/01/10 11:28:44;;;;;;;;;5.67;5.33;;;;;-146.37;100.00;59337.28;4998693;28;45253;-84
2023/01/10 11:31:10;;;;;;;;;7.33;6.00;;;;;-146.37;100.00;59337.28;5012813;28;45384;-80
2023/01/10 11:33:36;;;;;;;;;4.00;3.33;;;;;-146.37;100.00;59337.28;4994425;28;44897;-83
2023/01/10 11:36:13;;;;;;;;;4.67;2.33;;;;;-146.37;100.00;59337.28;4995653;28;45421;-83
2023/01/10 11:38:42;;;;;;;;;8.33;4.00;;;;;-146.37;100.00;59337.28;5011545;28;45420;-83
2023/01/10 11:41:17;;;;;;;;;3.00;2.00;;;;;-146.37;100.00;59337.28;4996381;28;45441;-83
2023/01/10 11:43:42;;;;;;;;;8.33;6.67;;;;;-146.37;100.00;59337.28;5012511;28;45479;-83
2023/01/10 11:46:25;;;;;;;;;5.67;3.33;;;;;-146.37;100.00;59337.28;4997207;28;45292;-81
2023/01/10 11:49:18;;;;;;;;;2.67;2.33;;;;;-146.37;100.00;59337.28;5030075;28;47819;-80
2023/01/10 11:51:51;;;;;;;;;8.00;6.00;;;;;-146.37;100.00;59337.28;5049967;28;45440;-81
2023/01/10 11:54:23;;;;;;;;;4.33;3.33;;;;;-146.37;100.00;59337.28;5054049;28;45496;-81
2023/01/10 11:57:17;;;;;;;;;4.00;2.67;;;;;-146.37;100.00;59337.28;5035373;28;45482;-84
2023/01/10 12:00:12;;;;;;;;;7.00;6.00;;;;;-146.37;100.00;59337.28;5073153;28;45229;-81
2023/01/10 12:02:46;;;;;;;;;7.00;3.00;;;;;-146.37;100.00;59337.28;5056157;28;44786;-81
2023/01/10 12:05:21;;;;;;;;;3.00;3.00;;;;;-146.37;100.00;59337.28;5058811;28;44839;-82
2023/01/10 12:08:09;;;;;;;;;2.00;2.00;;;;;-146.37;100.00;59337.28;5079762;28;45283;-81
2023/01/10 12:10:37;;;;;;;;;3.33;2.33;;;;;-146.37;100.00;59337.28;5055944;28;45184;-81